Time;durP1;ratioP1;P1;durP2;ratioP2;P2;SDS_P1;SDS_P2;PMS_P1;PMS_P2;Temp;Humidity;BMP_temperature;BMP_pressure;BME280_temperature;BME280_humidity;BME280_pressure;Samples;Min_cycle;Max_cycle;Signal;HPM_P1;HPM_P2
2022/06/30 00:00:13;;;;;;;9.68;5.72;;;25.40;70.90;;;;;;5028822;28;20353;-61
2022/06/30 00:02:39;;;;;;;8.45;6.18;;;25.30;71.00;;;;;;5064159;28;20087;-61
2022/06/30 00:05:05;;;;;;;11.32;6.38;;;25.30;71.10;;;;;;5062558;28;20032;-63
2022/06/30 00:07:30;;;;;;;10.20;5.43;;;25.30;71.20;;;;;;5064010;28;20032;-61
2022/06/30 00:09:56;;;;;;;10.13;5.13;;;25.20;71.10;;;;;;5047186;28;20585;-61
2022/06/30 00:12:21;;;;;;;11.02;5.70;;;25.30;71.30;;;;;;5064168;28;20491;-62
2022/06/30 00:14:47;;;;;;;15.20;6.10;;;25.20;71.40;;;;;;5059613;28;20706;-61
2022/06/30 00:17:12;;;;;;;9.10;5.45;;;25.20;71.40;;;;;;5035427;28;20489;-62
2022/06/30 00:19:38;;;;;;;11.35;6.20;;;25.20;71.40;;;;;;5055880;28;20440;-62
2022/06/30 00:22:06;;;;;;;8.02;5.60;;;25.20;71.50;;;;;;5050265;28;20036;-61
2022/06/30 00:24:32;;;;;;;8.07;4.63;;;25.10;71.50;;;;;;5033675;28;20964;-61
2022/06/30 00:26:57;;;;;;;9.32;5.05;;;25.10;71.60;;;;;;5032002;28;20433;-62
2022/06/30 00:29:23;;;;;;;11.38;5.63;;;25.10;71.70;;;;;;5056993;28;20033;-61
2022/06/30 00:31:48;;;;;;;7.32;4.40;;;25.10;71.80;;;;;;5046579;28;20078;-61
2022/06/30 00:34:14;;;;;;;8.93;5.47;;;25.10;71.80;;;;;;5034815;28;20509;-61
2022/06/30 00:36:39;;;;;;;7.75;5.90;;;25.10;72.00;;;;;;5029141;28;20033;-62
2022/06/30 00:39:05;;;;;;;9.23;5.85;;;25.00;71.90;;;;;;5031624;28;20032;-61
2022/06/30 00:41:30;;;;;;;8.50;5.78;;;25.00;72.10;;;;;;5040479;28;20435;-62
2022/06/30 00:43:56;;;;;;;10.82;6.25;;;25.00;72.00;;;;;;5033040;28;20051;-61
2022/06/30 00:46:21;;;;;;;12.00;5.70;;;25.00;72.00;;;;;;5044770;28;20491;-62
2022/06/30 00:48:47;;;;;;;9.80;5.38;;;24.90;72.10;;;;;;5034670;28;20413;-62
2022/06/30 00:51:12;;;;;;;8.63;4.88;;;24.90;72.20;;;;;;5044650;28;20142;-61
2022/06/30 00:53:39;;;;;;;13.07;4.85;;;24.90;72.20;;;;;;5042290;28;20553;-61
2022/06/30 00:56:06;;;;;;;10.65;4.88;;;24.80;72.30;;;;;;5012578;28;20218;-62
2022/06/30 00:58:34;;;;;;;8.27;5.30;;;24.80;72.50;;;;;;5034627;28;20021;-60
2022/06/30 01:01:00;;;;;;;6.13;4.80;;;24.80;72.50;;;;;;5029779;28;20100;-62
2022/06/30 01:03:26;;;;;;;6.85;4.70;;;24.80;72.50;;;;;;5026575;28;20039;-62
2022/06/30 01:05:52;;;;;;;7.53;4.80;;;24.80;72.60;;;;;;5031143;28;20037;-61
2022/06/30 01:08:17;;;;;;;6.90;4.72;;;24.80;72.50;;;;;;5028241;28;20100;-61
2022/06/30 01:13:28;;;;;;;9.02;4.85;;;24.70;72.60;;;;;;5045739;28;20366;-62
2022/06/30 01:15:54;;;;;;;10.00;4.85;;;24.70;72.70;;;;;;5033817;28;20496;-61
2022/06/30 01:18:19;;;;;;;8.13;3.95;;;24.60;72.70;;;;;;5045001;28;20045;-62
2022/06/30 01:20:45;;;;;;;16.13;5.55;;;24.60;73.00;;;;;;5062478;28;20063;-62
2022/06/30 01:23:10;;;;;;;6.63;4.35;;;24.60;73.30;;;;;;5043200;28;20082;-62
2022/06/30 01:25:36;;;;;;;10.50;4.50;;;24.60;73.50;;;;;;5063600;28;20446;-63
2022/06/30 01:28:01;;;;;;;6.55;4.53;;;24.50;73.70;;;;;;5026041;28;20025;-62
2022/06/30 01:30:27;;;;;;;9.77;4.20;;;24.50;73.70;;;;;;5026934;28;20677;-61
2022/06/30 01:32:52;;;;;;;9.25;4.47;;;24.50;73.70;;;;;;5044625;28;20082;-62
2022/06/30 01:35:18;;;;;;;10.75;4.78;;;24.50;73.50;;;;;;5011099;28;20048;-62
2022/06/30 01:37:48;;;;;;;5.22;4.00;;;24.50;73.50;;;;;;5045399;28;20033;-62
2022/06/30 01:40:13;;;;;;;7.38;3.85;;;24.50;73.60;;;;;;5063257;28;20052;-61
2022/06/30 01:42:39;;;;;;;7.05;4.30;;;24.40;73.80;;;;;;5063004;28;20060;-62
2022/06/30 01:45:05;;;;;;;5.47;3.92;;;24.40;73.90;;;;;;5040804;28;20091;-61
2022/06/30 01:47:31;;;;;;;6.18;4.38;;;24.40;74.00;;;;;;5044260;28;20028;-61
2022/06/30 01:49:56;;;;;;;11.27;4.25;;;24.40;74.00;;;;;;5060258;28;20024;-61
2022/06/30 01:52:22;;;;;;;7.10;4.18;;;24.40;73.90;;;;;;5063385;28;20040;-62
2022/06/30 01:54:47;;;;;;;8.60;4.05;;;24.30;73.90;;;;;;5044320;28;20112;-63
2022/06/30 01:57:13;;;;;;;6.20;4.00;;;24.30;74.00;;;;;;5043521;28;20029;-61
2022/06/30 01:59:38;;;;;;;9.45;3.63;;;24.30;74.00;;;;;;5036938;28;20049;-62
2022/06/30 02:02:04;;;;;;;6.75;4.05;;;24.30;74.00;;;;;;5062283;28;20009;-62
2022/06/30 02:04:48;;;;;;;7.20;3.75;;;24.20;74.00;;;;;;5045528;28;20024;-61
2022/06/30 02:07:20;;;;;;;4.45;3.58;;;24.20;74.00;;;;;;5062899;28;20040;-61
2022/06/30 02:09:45;;;;;;;6.65;3.20;;;24.20;74.30;;;;;;5027118;28;20107;-61
2022/06/30 02:14:56;;;;;;;5.95;3.38;;;24.10;74.50;;;;;;5059459;28;20521;-61
2022/06/30 02:17:22;;;;;;;8.27;3.78;;;24.20;74.70;;;;;;5037893;28;20519;-63
2022/06/30 02:19:47;;;;;;;5.97;3.72;;;24.10;74.70;;;;;;5021943;28;20061;-61
2022/06/30 02:22:13;;;;;;;6.95;3.70;;;24.10;74.80;;;;;;5041412;28;20082;-61
2022/06/30 02:24:38;;;;;;;5.03;2.90;;;24.00;74.60;;;;;;5022584;28;20111;-62
2022/06/30 02:27:04;;;;;;;6.20;3.30;;;24.00;74.60;;;;;;5039910;28;20145;-62
2022/06/30 02:29:30;;;;;;;6.35;3.60;;;24.00;74.70;;;;;;5042116;28;20068;-62
2022/06/30 02:31:55;;;;;;;6.18;3.75;;;24.00;74.80;;;;;;5042235;28;20063;-61
2022/06/30 02:34:21;;;;;;;3.97;2.92;;;24.00;74.90;;;;;;5041209;28;20337;-63
2022/06/30 02:36:46;;;;;;;5.40;3.10;;;23.90;75.00;;;;;;5039133;28;20426;-61
2022/06/30 02:39:12;;;;;;;4.55;3.42;;;23.90;75.10;;;;;;5040323;28;20236;-62
2022/06/30 02:41:37;;;;;;;5.75;3.20;;;23.90;75.10;;;;;;5042152;28;20055;-62
2022/06/30 02:44:03;;;;;;;4.90;3.20;;;23.90;75.10;;;;;;5043057;28;20162;-62
2022/06/30 02:46:29;;;;;;;4.47;3.25;;;23.80;75.10;;;;;;5041723;28;20446;-63
2022/06/30 02:48:54;;;;;;;5.57;3.40;;;23.80;75.20;;;;;;5041255;28;20211;-61
2022/06/30 02:51:20;;;;;;;4.10;3.38;;;23.80;75.20;;;;;;5041286;28;20611;-61
2022/06/30 02:53:46;;;;;;;6.15;3.20;;;23.80;75.30;;;;;;5023169;28;20021;-62
2022/06/30 02:56:12;;;;;;;5.80;3.40;;;23.80;75.40;;;;;;5041282;28;20347;-63
2022/06/30 02:58:38;;;;;;;6.47;3.45;;;23.80;75.30;;;;;;5040480;28;20134;-62
2022/06/30 03:01:03;;;;;;;5.68;3.15;;;23.70;75.30;;;;;;5038990;28;20825;-61
2022/06/30 03:03:29;;;;;;;4.15;3.05;;;23.80;75.50;;;;;;5039633;28;20052;-62
2022/06/30 03:05:54;;;;;;;4.60;2.90;;;23.70;75.50;;;;;;5021656;28;20029;-62
2022/06/30 03:08:20;;;;;;;5.80;3.10;;;23.70;75.40;;;;;;5040549;28;20841;-62
2022/06/30 03:10:45;;;;;;;4.78;3.17;;;23.70;75.50;;;;;;5043218;28;20037;-62
2022/06/30 03:13:11;;;;;;;4.82;3.47;;;23.70;75.70;;;;;;5039937;28;20025;-61
2022/06/30 03:15:36;;;;;;;5.18;3.85;;;23.60;75.60;;;;;;5043033;28;20373;-61
2022/06/30 03:18:02;;;;;;;5.50;3.80;;;23.60;75.70;;;;;;5047128;28;20098;-62
2022/06/30 03:20:27;;;;;;;8.27;4.18;;;23.60;75.80;;;;;;5040472;28;20811;-62
2022/06/30 03:22:53;;;;;;;3.92;3.20;;;23.60;75.90;;;;;;5049511;28;20716;-63
2022/06/30 03:25:18;;;;;;;7.03;3.72;;;23.60;76.00;;;;;;5048476;28;20784;-61
2022/06/30 03:27:44;;;;;;;5.38;3.80;;;23.50;76.00;;;;;;5055194;28;20049;-62
2022/06/30 03:30:10;;;;;;;4.60;3.38;;;23.50;76.20;;;;;;5039659;28;20123;-61
2022/06/30 03:32:35;;;;;;;6.90;4.10;;;23.50;76.30;;;;;;5041599;28;20029;-62
2022/06/30 03:35:01;;;;;;;5.38;3.67;;;23.50;76.20;;;;;;5040636;28;20029;-62
2022/06/30 03:37:26;;;;;;;6.20;3.60;;;23.50;76.20;;;;;;5046347;28;20377;-62
2022/06/30 03:39:52;;;;;;;6.30;3.88;;;23.40;76.30;;;;;;5048201;28;20439;-62
2022/06/30 03:42:17;;;;;;;4.75;3.67;;;23.40;76.40;;;;;;5043139;28;20071;-61
2022/06/30 03:44:43;;;;;;;4.65;3.80;;;23.40;76.40;;;;;;5041909;28;20516;-63
2022/06/30 03:47:09;;;;;;;6.13;3.95;;;23.40;76.50;;;;;;5042003;28;20029;-63
2022/06/30 03:49:34;;;;;;;4.78;3.50;;;23.30;76.60;;;;;;5050001;28;20452;-62
2022/06/30 03:52:00;;;;;;;3.95;3.55;;;23.30;76.60;;;;;;5055213;28;20032;-61
2022/06/30 03:54:27;;;;;;;5.55;3.90;;;23.30;76.50;;;;;;5040544;28;20555;-61
2022/06/30 03:56:53;;;;;;;5.13;3.80;;;23.30;76.50;;;;;;5036075;28;20492;-61
2022/06/30 03:59:18;;;;;;;5.15;4.20;;;23.30;76.60;;;;;;5040234;28;20595;-63
2022/06/30 04:01:44;;;;;;;5.38;4.75;;;23.30;76.60;;;;;;5049993;28;20024;-61
2022/06/30 04:04:09;;;;;;;5.20;4.28;;;23.30;76.60;;;;;;5047798;28;20036;-62
2022/06/30 04:06:35;;;;;;;5.78;4.43;;;23.30;76.70;;;;;;5048987;28;20048;-62
2022/06/30 04:09:00;;;;;;;6.22;4.20;;;23.30;76.80;;;;;;5040875;28;20117;-62
2022/06/30 04:11:26;;;;;;;6.95;4.18;;;23.20;76.80;;;;;;5039918;28;20075;-61
2022/06/30 04:13:51;;;;;;;8.25;4.13;;;23.20;76.90;;;;;;5040180;28;20047;-62
2022/06/30 04:16:17;;;;;;;7.47;3.97;;;23.20;77.10;;;;;;5055886;28;20410;-62
2022/06/30 04:18:42;;;;;;;7.40;4.32;;;23.20;77.20;;;;;;5060131;28;20042;-61
2022/06/30 04:21:08;;;;;;;38.45;8.05;;;23.20;77.30;;;;;;5060726;28;20028;-61
2022/06/30 04:23:34;;;;;;;32.72;6.88;;;23.20;77.30;;;;;;5059605;28;20079;-62
2022/06/30 04:25:59;;;;;;;18.10;5.10;;;23.10;77.30;;;;;;5054089;28;20504;-61
2022/06/30 04:28:25;;;;;;;16.50;5.25;;;23.10;77.30;;;;;;5057577;28;20033;-61
2022/06/30 04:33:34;;;;;;;22.02;5.70;;;23.10;77.40;;;;;;5061509;28;20043;-62
2022/06/30 04:36:00;;;;;;;20.08;5.78;;;23.10;77.40;;;;;;5059201;28;20200;-63
2022/06/30 04:38:25;;;;;;;28.63;5.53;;;23.10;77.40;;;;;;5062364;28;20033;-61
2022/06/30 04:43:35;;;;;;;12.10;5.38;;;23.10;77.70;;;;;;5063059;28;20039;-61
2022/06/30 04:46:00;;;;;;;13.15;5.00;;;23.10;77.70;;;;;;5061674;28;20080;-62
2022/06/30 04:48:26;;;;;;;23.48;5.45;;;23.10;77.60;;;;;;5043049;28;20051;-63
2022/06/30 04:50:51;;;;;;;13.23;4.88;;;23.10;77.70;;;;;;5062095;28;20036;-61
2022/06/30 04:53:17;;;;;;;20.30;5.22;;;23.00;77.60;;;;;;5061246;28;20074;-62
2022/06/30 04:55:42;;;;;;;13.30;5.13;;;23.10;78.60;;;;;;5062104;28;20458;-62
2022/06/30 04:58:08;;;;;;;16.95;4.70;;;23.10;78.10;;;;;;5061819;28;20504;-61
2022/06/30 05:00:33;;;;;;;11.00;4.60;;;23.00;78.20;;;;;;5062418;28;20540;-62
2022/06/30 05:02:59;;;;;;;10.77;4.22;;;23.00;78.50;;;;;;5061705;28;20107;-62
2022/06/30 05:05:25;;;;;;;14.45;4.63;;;23.00;78.90;;;;;;5060622;28;20032;-63
2022/06/30 05:07:50;;;;;;;13.10;4.20;;;22.90;79.10;;;;;;5044301;28;20025;-62
2022/06/30 05:10:16;;;;;;;15.40;5.05;;;22.90;79.40;;;;;;5043067;28;20092;-62
2022/06/30 05:12:41;;;;;;;9.35;4.05;;;22.90;79.60;;;;;;5060296;28;20210;-62
2022/06/30 05:15:07;;;;;;;8.30;4.10;;;22.90;79.80;;;;;;5044456;28;20052;-63
2022/06/30 05:17:34;;;;;;;9.65;3.92;;;22.90;79.60;;;;;;5063370;28;20052;-61
2022/06/30 05:19:59;;;;;;;9.07;4.03;;;22.90;79.50;;;;;;5027801;28;20043;-62
2022/06/30 05:22:25;;;;;;;13.15;4.30;;;22.90;79.60;;;;;;5063452;28;20088;-62
2022/06/30 05:27:34;;;;;;;10.90;3.95;;;22.90;80.00;;;;;;5060390;28;20105;-62
2022/06/30 05:30:00;;;;;;;9.60;4.22;;;22.80;80.20;;;;;;5064023;28;20411;-62
2022/06/30 05:32:26;;;;;;;8.40;4.30;;;22.80;80.30;;;;;;5041731;28;20029;-62
2022/06/30 05:34:51;;;;;;;10.15;4.30;;;22.80;80.30;;;;;;5062512;28;20111;-61
2022/06/30 05:37:17;;;;;;;15.88;4.50;;;22.80;80.40;;;;;;5055518;28;20046;-61
2022/06/30 05:39:42;;;;;;;12.23;4.22;;;22.80;80.50;;;;;;5060937;28;20296;-63
2022/06/30 05:42:08;;;;;;;9.70;4.18;;;22.80;80.20;;;;;;5061257;28;20571;-62
2022/06/30 05:44:33;;;;;;;11.90;3.95;;;22.80;80.60;;;;;;5042485;28;20041;-61
2022/06/30 05:46:59;;;;;;;6.22;3.60;;;22.80;80.50;;;;;;5061448;28;20537;-61
2022/06/30 05:49:25;;;;;;;5.10;3.97;;;22.80;80.90;;;;;;5036546;28;20669;-62
2022/06/30 05:51:51;;;;;;;7.22;3.88;;;22.80;81.10;;;;;;5024046;28;20064;-62
2022/06/30 05:54:16;;;;;;;5.68;4.10;;;22.80;81.60;;;;;;5037197;28;20040;-62
2022/06/30 05:56:42;;;;;;;9.48;4.35;;;22.70;81.70;;;;;;5038718;28;20419;-62
2022/06/30 05:59:07;;;;;;;10.77;3.90;;;22.70;82.40;;;;;;5041064;28;20542;-61
2022/06/30 06:01:33;;;;;;;7.18;4.03;;;22.70;82.40;;;;;;5057052;28;20424;-62
2022/06/30 06:03:58;;;;;;;8.27;4.20;;;22.70;82.90;;;;;;5055158;28;20171;-61
2022/06/30 06:06:24;;;;;;;8.02;4.28;;;22.60;83.80;;;;;;5039139;28;20039;-62
2022/06/30 06:08:49;;;;;;;11.43;4.45;;;22.60;84.40;;;;;;5040012;28;20036;-63
2022/06/30 06:11:15;;;;;;;14.30;5.18;;;22.60;84.30;;;;;;5041556;28;20944;-61
2022/06/30 06:13:40;;;;;;;13.23;4.82;;;22.60;84.40;;;;;;5059358;28;20120;-61
2022/06/30 06:16:06;;;;;;;15.70;5.10;;;22.60;84.80;;;;;;5053649;28;20048;-61
2022/06/30 06:18:32;;;;;;;28.45;6.13;;;22.60;84.60;;;;;;5032667;28;20024;-61
2022/06/30 06:20:57;;;;;;;34.50;6.72;;;22.50;85.30;;;;;;5059443;28;20037;-61
2022/06/30 06:23:23;;;;;;;30.90;7.38;;;22.50;86.30;;;;;;5037656;28;20467;-62
2022/06/30 06:25:48;;;;;;;28.92;7.35;;;22.50;85.90;;;;;;5041217;28;20523;-62
2022/06/30 06:30:58;;;;;;;28.77;6.10;;;22.50;86.00;;;;;;5043286;28;20040;-62
2022/06/30 06:33:24;;;;;;;22.52;6.55;;;22.50;85.90;;;;;;5061304;28;20040;-63
2022/06/30 06:35:49;;;;;;;31.20;7.60;;;22.50;85.80;;;;;;5059125;28;20523;-63
2022/06/30 06:38:15;;;;;;;42.25;7.22;;;22.60;86.30;;;;;;5040979;28;20063;-62
2022/06/30 06:40:41;;;;;;;40.75;7.25;;;22.60;86.40;;;;;;5060598;28;20063;-61
2022/06/30 06:43:07;;;;;;;30.60;7.88;;;22.60;86.80;;;;;;5043191;28;20028;-62
2022/06/30 06:45:32;;;;;;;25.35;6.90;;;22.60;86.50;;;;;;5062026;28;20043;-62
2022/06/30 06:47:58;;;;;;;26.30;6.95;;;22.60;86.90;;;;;;5061352;28;20040;-61
2022/06/30 06:50:23;;;;;;;25.98;6.85;;;22.60;86.80;;;;;;5060540;28;20043;-62
2022/06/30 06:52:49;;;;;;;25.20;6.85;;;22.60;86.90;;;;;;5024107;28;20029;-62
2022/06/30 06:55:16;;;;;;;19.92;6.22;;;22.60;87.20;;;;;;5039881;28;20394;-61
2022/06/30 06:57:43;;;;;;;22.13;6.15;;;22.60;87.40;;;;;;5023642;28;20021;-62
2022/06/30 07:00:09;;;;;;;17.95;6.20;;;22.70;87.70;;;;;;5040715;28;20062;-62
2022/06/30 07:02:35;;;;;;;21.15;5.28;;;22.60;87.50;;;;;;5058512;28;20039;-62
2022/06/30 07:05:00;;;;;;;19.95;5.20;;;22.60;87.70;;;;;;5057897;28;20028;-61
2022/06/30 07:07:26;;;;;;;21.95;5.85;;;22.60;87.60;;;;;;5039465;28;20147;-63
2022/06/30 07:09:51;;;;;;;33.60;7.38;;;22.60;87.90;;;;;;5057966;28;20106;-61
2022/06/30 07:12:17;;;;;;;32.47;5.25;;;22.70;88.20;;;;;;5053609;28;20414;-62
2022/06/30 07:14:43;;;;;;;18.73;5.35;;;22.60;88.40;;;;;;5022276;28;20476;-62
2022/06/30 07:17:08;;;;;;;17.63;5.63;;;22.70;88.20;;;;;;5046765;28;20063;-62
2022/06/30 07:19:34;;;;;;;17.27;5.55;;;22.70;88.20;;;;;;5034878;28;20045;-62
2022/06/30 07:21:59;;;;;;;21.63;6.10;;;22.70;88.40;;;;;;5026980;28;20091;-61
2022/06/30 07:24:26;;;;;;;19.92;5.57;;;22.70;88.60;;;;;;5052696;28;20267;-62
2022/06/30 07:26:51;;;;;;;12.15;4.97;;;22.70;88.40;;;;;;5042081;28;20322;-61
2022/06/30 07:29:17;;;;;;;46.67;7.93;;;22.70;88.60;;;;;;5040040;28;20029;-61
2022/06/30 07:31:43;;;;;;;66.00;8.85;;;22.70;88.70;;;;;;5038380;28;20133;-61
2022/06/30 07:34:08;;;;;;;28.73;6.38;;;22.70;88.40;;;;;;5035901;28;20081;-62
2022/06/30 07:36:35;;;;;;;67.47;9.73;;;22.80;88.70;;;;;;5018676;28;20033;-62
2022/06/30 07:39:01;;;;;;;47.38;8.40;;;22.80;88.90;;;;;;5018296;28;20148;-61
2022/06/30 07:41:28;;;;;;;52.70;8.50;;;22.80;88.80;;;;;;5036345;28;20177;-62
2022/06/30 07:43:54;;;;;;;39.03;7.35;;;22.90;88.40;;;;;;5039081;28;21513;-62
2022/06/30 07:46:19;;;;;;;36.45;6.28;;;22.90;88.50;;;;;;5037725;28;20033;-62
2022/06/30 07:48:45;;;;;;;21.38;4.90;;;22.90;88.10;;;;;;5044428;28;20017;-63
2022/06/30 07:51:11;;;;;;;21.85;5.43;;;22.90;87.70;;;;;;5038605;28;20149;-61
2022/06/30 07:53:37;;;;;;;24.27;6.38;;;22.90;87.60;;;;;;5038243;28;20113;-62
2022/06/30 07:56:02;;;;;;;26.35;5.22;;;23.00;87.40;;;;;;5026952;28;20083;-62
2022/06/30 07:58:28;;;;;;;26.95;6.22;;;23.00;87.70;;;;;;5056119;28;20072;-62
2022/06/30 08:00:53;;;;;;;32.08;6.22;;;23.00;87.70;;;;;;5032041;28;20036;-62
2022/06/30 08:03:19;;;;;;;22.90;5.60;;;23.00;87.80;;;;;;5038712;28;20048;-62
2022/06/30 08:05:44;;;;;;;24.67;5.57;;;23.00;87.40;;;;;;5029364;28;20045;-62
2022/06/30 08:08:10;;;;;;;25.63;4.93;;;23.10;87.30;;;;;;5037423;28;20029;-62
2022/06/30 08:10:35;;;;;;;26.90;5.68;;;23.10;87.30;;;;;;5039982;28;20125;-62
2022/06/30 08:13:01;;;;;;;28.23;5.28;;;23.10;87.30;;;;;;5044098;28;20141;-61
2022/06/30 08:15:26;;;;;;;25.83;6.55;;;23.10;87.40;;;;;;5030190;28;20045;-62
2022/06/30 08:17:52;;;;;;;25.17;5.85;;;23.10;87.20;;;;;;5029542;28;20140;-61
2022/06/30 08:20:18;;;;;;;27.13;5.82;;;23.10;87.30;;;;;;5021025;28;20143;-61
2022/06/30 08:22:43;;;;;;;31.98;5.57;;;23.10;87.20;;;;;;5019589;28;20388;-61
2022/06/30 08:25:09;;;;;;;38.80;6.25;;;23.20;87.20;;;;;;5031407;28;20128;-62
2022/06/30 08:27:34;;;;;;;30.30;5.97;;;23.20;86.90;;;;;;5032250;28;20037;-62
2022/06/30 08:30:00;;;;;;;30.42;6.25;;;23.20;87.00;;;;;;5020943;28;20036;-61
2022/06/30 08:32:25;;;;;;;33.58;6.32;;;23.20;87.00;;;;;;5028981;28;20029;-61
2022/06/30 08:34:51;;;;;;;19.48;6.10;;;23.30;87.00;;;;;;5049235;28;20026;-61
2022/06/30 08:37:16;;;;;;;26.02;5.63;;;23.30;87.10;;;;;;5035732;28;20043;-63
2022/06/30 08:42:26;;;;;;;31.55;6.13;;;23.40;87.00;;;;;;5043318;28;20116;-61
2022/06/30 08:47:36;;;;;;;22.25;5.53;;;23.50;86.40;;;;;;5053103;28;20042;-62
2022/06/30 08:50:02;;;;;;;28.73;5.40;;;23.50;86.20;;;;;;5023394;28;20519;-62
2022/06/30 08:52:29;;;;;;;22.00;4.78;;;23.60;86.00;;;;;;5035397;28;20055;-61
2022/06/30 08:54:54;;;;;;;29.42;5.35;;;23.60;86.70;;;;;;5022128;28;20497;-62
2022/06/30 08:57:20;;;;;;;32.95;5.78;;;23.60;86.00;;;;;;5019764;28;20021;-63
2022/06/30 08:59:45;;;;;;;30.00;5.85;;;23.60;85.90;;;;;;5020694;28;20524;-61
2022/06/30 09:02:11;;;;;;;19.15;5.15;;;23.70;85.80;;;;;;5037828;28;20037;-63
2022/06/30 09:04:36;;;;;;;28.98;5.80;;;23.70;85.90;;;;;;5006814;28;20025;-61
2022/06/30 09:07:02;;;;;;;24.73;6.28;;;23.70;85.60;;;;;;5055127;28;20182;-63
2022/06/30 09:09:27;;;;;;;20.90;6.05;;;23.80;85.40;;;;;;5049855;28;20187;-61
2022/06/30 09:11:54;;;;;;;19.60;5.72;;;23.80;85.10;;;;;;5036844;28;20053;-63
2022/06/30 09:14:33;;;;;;;23.08;5.82;;;23.90;85.00;;;;;;5037809;28;20306;-62
2022/06/30 09:16:59;;;;;;;18.85;6.18;;;24.00;84.70;;;;;;5033900;28;20420;-62
2022/06/30 09:19:24;;;;;;;33.28;6.30;;;24.00;84.30;;;;;;5023526;28;20060;-62
2022/06/30 09:22:07;;;;;;;24.88;6.00;;;24.00;84.00;;;;;;5023925;28;20471;-61
2022/06/30 09:24:33;;;;;;;26.60;5.82;;;24.00;83.20;;;;;;5026839;28;20453;-61
2022/06/30 09:27:10;;;;;;;23.10;5.28;;;24.10;82.70;;;;;;5037243;28;20029;-61
2022/06/30 09:29:48;;;;;;;25.02;4.85;;;24.10;82.10;;;;;;5057724;28;20036;-63
2022/06/30 09:32:13;;;;;;;29.25;5.95;;;24.20;81.90;;;;;;5040263;28;20464;-63
2022/06/30 09:34:40;;;;;;;25.45;5.47;;;24.20;81.60;;;;;;5038723;28;20035;-62
2022/06/30 09:37:23;;;;;;;32.83;5.63;;;24.20;81.20;;;;;;5039376;28;20032;-62
2022/06/30 09:39:49;;;;;;;28.67;5.10;;;24.30;80.70;;;;;;5038271;28;20256;-62
2022/06/30 09:42:34;;;;;;;17.45;4.70;;;24.40;80.50;;;;;;5055073;28;20043;-63
2022/06/30 09:44:59;;;;;;;18.83;4.15;;;24.40;80.10;;;;;;5026820;28;20052;-63
2022/06/30 09:47:25;;;;;;;23.83;4.63;;;24.50;79.60;;;;;;5039669;28;20100;-62
2022/06/30 09:49:50;;;;;;;25.98;4.60;;;24.50;79.50;;;;;;5060271;28;20544;-62
2022/06/30 09:52:23;;;;;;;19.40;4.60;;;24.60;79.10;;;;;;5038154;28;20044;-62
2022/06/30 09:54:56;;;;;;;25.67;5.35;;;24.60;78.90;;;;;;5029242;28;20589;-62
2022/06/30 09:57:23;;;;;;;23.77;4.80;;;24.70;79.00;;;;;;5015371;28;20535;-61
2022/06/30 10:00:00;;;;;;;23.85;5.65;;;24.70;78.90;;;;;;5018765;28;20033;-62
2022/06/30 10:02:41;;;;;;;33.80;6.30;;;24.70;78.80;;;;;;5013996;28;20046;-61
2022/06/30 10:05:07;;;;;;;56.45;7.05;;;24.80;78.90;;;;;;5029734;28;20033;-62
2022/06/30 10:07:34;;;;;;;40.30;6.75;;;24.80;78.70;;;;;;4997581;28;20025;-62
2022/06/30 10:10:04;;;;;;;34.72;5.55;;;24.80;78.80;;;;;;5035340;28;20020;-63
2022/06/30 10:12:30;;;;;;;40.33;7.22;;;24.90;78.90;;;;;;5034843;28;20093;-61
2022/06/30 10:14:55;;;;;;;30.85;5.90;;;24.90;78.70;;;;;;5000334;28;20719;-64
2022/06/30 10:17:25;;;;;;;51.75;7.82;;;24.90;79.10;;;;;;5032631;28;20134;-62
2022/06/30 10:19:52;;;;;;;27.85;6.03;;;24.90;78.80;;;;;;5033705;28;20059;-62
2022/06/30 10:22:18;;;;;;;39.10;6.07;;;25.00;78.30;;;;;;5034782;28;20033;-62
2022/06/30 10:24:45;;;;;;;32.80;6.60;;;25.10;78.40;;;;;;5019929;28;21222;-63
2022/06/30 10:27:14;;;;;;;31.10;5.53;;;25.10;78.20;;;;;;5013353;28;20120;-61
2022/06/30 10:29:41;;;;;;;60.13;7.90;;;25.10;78.20;;;;;;5015875;28;20025;-62
2022/06/30 10:32:12;;;;;;;44.35;6.85;;;25.20;78.30;;;;;;5012964;28;20089;-62
2022/06/30 10:34:44;;;;;;;35.28;6.43;;;25.30;78.40;;;;;;5014485;28;20056;-62
2022/06/30 10:37:28;;;;;;;36.38;7.03;;;25.30;78.20;;;;;;5006141;28;20028;-62
2022/06/30 10:39:59;;;;;;;30.85;5.85;;;25.40;78.10;;;;;;5017396;28;20037;-61
2022/06/30 10:42:48;;;;;;;37.65;5.55;;;25.40;78.10;;;;;;5002767;28;20699;-61
2022/06/30 10:45:28;;;;;;;41.67;7.00;;;25.50;78.30;;;;;;5034775;28;20059;-62
2022/06/30 10:48:02;;;;;;;40.45;7.00;;;25.60;78.30;;;;;;5033079;28;20101;-62
2022/06/30 10:50:38;;;;;;;26.45;7.05;;;25.60;78.00;;;;;;5015378;28;20433;-62
2022/06/30 10:53:05;;;;;;;41.13;7.45;;;25.70;78.10;;;;;;5016665;28;20466;-62
2022/06/30 10:55:43;;;;;;;51.60;9.15;;;25.80;77.90;;;;;;4997100;28;20043;-63
2022/06/30 10:58:09;;;;;;;38.80;6.68;;;25.80;77.60;;;;;;5013215;28;20032;-63
2022/06/30 11:00:55;;;;;;;29.52;7.50;;;25.80;77.40;;;;;;5015745;28;20039;-62
2022/06/30 11:03:29;;;;;;;36.30;6.65;;;25.90;77.30;;;;;;5025159;28;20044;-62
2022/06/30 11:05:55;;;;;;;49.13;8.55;;;25.90;77.20;;;;;;5034330;28;20044;-63
2022/06/30 11:08:35;;;;;;;33.08;6.47;;;25.90;77.00;;;;;;5016554;28;20119;-62
2022/06/30 11:11:19;;;;;;;31.80;6.03;;;26.00;77.30;;;;;;5035712;28;20136;-63
2022/06/30 11:13:45;;;;;;;42.00;9.35;;;26.00;76.40;;;;;;5034290;28;20125;-61
2022/06/30 11:16:13;;;;;;;44.92;7.35;;;26.00;76.20;;;;;;5015857;28;21868;-63
2022/06/30 11:18:39;;;;;;;48.60;7.05;;;26.10;76.10;;;;;;5029884;28;20586;-62
2022/06/30 11:21:04;;;;;;;25.88;6.35;;;26.10;75.70;;;;;;5048601;28;20036;-63
2022/06/30 11:23:35;;;;;;;33.65;5.53;;;26.10;75.50;;;;;;5047899;28;20051;-63
2022/06/30 11:28:45;;;;;;;40.30;6.65;;;26.10;75.60;;;;;;5025647;28;20039;-62
2022/06/30 11:31:30;;;;;;;29.65;6.28;;;26.20;75.80;;;;;;5031224;28;20040;-61
2022/06/30 11:34:06;;;;;;;25.50;7.05;;;26.20;75.70;;;;;;5035436;28;21323;-61
2022/06/30 11:36:33;;;;;;;35.25;6.28;;;26.20;75.90;;;;;;5048271;28;20618;-61
2022/06/30 11:39:06;;;;;;;34.92;6.07;;;26.20;76.00;;;;;;5031971;28;20702;-62
2022/06/30 11:44:16;;;;;;;34.92;5.97;;;26.20;76.60;;;;;;5037485;28;20804;-62
2022/06/30 11:46:49;;;;;;;34.38;6.32;;;26.20;77.00;;;;;;5015594;28;20033;-62
2022/06/30 11:49:14;;;;;;;30.38;6.32;;;26.20;77.30;;;;;;5030788;28;20032;-62
2022/06/30 11:51:41;;;;;;;34.55;6.45;;;26.30;77.50;;;;;;5049168;28;20029;-62
2022/06/30 11:54:07;;;;;;;25.88;5.97;;;26.30;77.90;;;;;;5034522;28;20051;-61
2022/06/30 11:56:51;;;;;;;35.15;6.20;;;26.30;79.00;;;;;;5007238;28;20539;-62
2022/06/30 11:59:17;;;;;;;27.55;6.00;;;26.40;79.10;;;;;;5043825;28;20028;-63
2022/06/30 12:01:58;;;;;;;25.50;6.05;;;26.40;78.90;;;;;;5030969;28;20028;-62
2022/06/30 12:04:24;;;;;;;27.10;6.03;;;26.40;79.60;;;;;;5013229;28;20488;-62
2022/06/30 12:06:49;;;;;;;37.17;6.60;;;26.40;79.50;;;;;;5019518;28;20043;-62
2022/06/30 12:09:15;;;;;;;38.13;6.07;;;26.40;79.30;;;;;;5025405;28;20038;-62
2022/06/30 12:11:40;;;;;;;30.85;6.53;;;26.40;79.80;;;;;;5044811;28;20051;-62
2022/06/30 12:14:06;;;;;;;39.80;6.85;;;26.40;79.30;;;;;;5032206;28;20044;-62
2022/06/30 12:16:31;;;;;;;33.47;6.68;;;26.40;80.20;;;;;;5024984;28;20605;-61
2022/06/30 12:18:57;;;;;;;32.00;6.95;;;26.40;80.70;;;;;;5043693;28;20039;-62
2022/06/30 12:21:23;;;;;;;50.80;7.22;;;26.40;80.20;;;;;;5029689;28;21598;-62
2022/06/30 12:23:48;;;;;;;34.85;7.30;;;26.40;80.10;;;;;;5024675;28;20754;-62
2022/06/30 12:26:14;;;;;;;40.75;9.23;;;26.40;80.40;;;;;;5044978;28;20139;-62
2022/06/30 12:28:59;;;;;;;75.57;11.80;;;26.50;80.80;;;;;;5046277;28;20029;-63
2022/06/30 12:31:26;;;;;;;77.33;10.27;;;26.40;80.60;;;;;;5034541;28;20044;-62
2022/06/30 12:33:52;;;;;;;63.00;10.35;;;26.60;80.70;;;;;;5038992;28;20557;-61
2022/06/30 12:36:17;;;;;;;83.00;12.57;;;26.60;80.60;;;;;;5018346;28;20067;-63
2022/06/30 12:38:43;;;;;;;60.60;10.73;;;26.50;80.60;;;;;;5033502;28;20029;-62
2022/06/30 12:41:09;;;;;;;83.28;11.02;;;26.50;80.60;;;;;;5038881;28;20140;-62
2022/06/30 12:43:45;;;;;;;72.55;10.68;;;26.60;80.60;;;;;;5034972;28;20607;-62
2022/06/30 12:46:11;;;;;;;65.43;10.40;;;26.60;80.50;;;;;;5021151;28;20033;-62
2022/06/30 12:48:50;;;;;;;47.83;9.40;;;26.60;80.60;;;;;;5047727;28;20052;-62
2022/06/30 12:51:36;;;;;;;60.42;10.63;;;26.60;81.00;;;;;;5047560;28;20582;-62
2022/06/30 12:54:05;;;;;;;78.82;11.52;;;26.60;81.00;;;;;;5047389;28;20053;-62
2022/06/30 12:56:31;;;;;;;74.50;11.15;;;26.60;80.80;;;;;;5024254;28;20087;-63
2022/06/30 12:58:59;;;;;;;75.78;11.10;;;26.60;80.80;;;;;;5026997;28;20056;-62
2022/06/30 13:01:29;;;;;;;47.20;9.13;;;26.70;80.80;;;;;;5047991;28;20615;-62
2022/06/30 13:03:55;;;;;;;70.55;11.48;;;26.80;80.90;;;;;;5038665;28;20519;-62
2022/06/30 13:06:21;;;;;;;74.40;10.85;;;26.70;80.70;;;;;;5043187;28;20025;-62